sensor_id;sensor_type;location;lat;lon;timestamp;P1;durP1;ratioP1;P2;durP2;ratioP2
32250;SDS011;41295;48.518;9.206;2022-10-29T00:01:03;28.17;;;9.77;;
32250;SDS011;41295;48.518;9.206;2022-10-29T00:03:06;22.40;;;9.40;;
32250;SDS011;41295;48.518;9.206;2022-10-29T00:05:09;33.15;;;10.27;;
32250;SDS011;41295;48.518;9.206;2022-10-29T00:07:13;31.80;;;9.43;;
32250;SDS011;41295;48.518;9.206;2022-10-29T00:09:16;23.88;;;9.80;;
32250;SDS011;41295;48.518;9.206;2022-10-29T00:11:19;23.95;;;9.48;;
32250;SDS011;41295;48.518;9.206;2022-10-29T00:13:23;31.08;;;11.23;;
32250;SDS011;41295;48.518;9.206;2022-10-29T00:15:25;21.65;;;8.15;;
32250;SDS011;41295;48.518;9.206;2022-10-29T00:17:28;22.08;;;8.75;;
32250;SDS011;41295;48.518;9.206;2022-10-29T00:19:30;26.00;;;8.38;;
32250;SDS011;41295;48.518;9.206;2022-10-29T00:21:33;17.67;;;7.43;;
32250;SDS011;41295;48.518;9.206;2022-10-29T00:23:37;23.33;;;8.35;;
32250;SDS011;41295;48.518;9.206;2022-10-29T00:25:40;25.20;;;7.82;;
32250;SDS011;41295;48.518;9.206;2022-10-29T00:27:42;20.88;;;6.70;;
32250;SDS011;41295;48.518;9.206;2022-10-29T00:29:45;21.48;;;7.53;;
32250;SDS011;41295;48.518;9.206;2022-10-29T00:31:48;15.68;;;6.22;;
32250;SDS011;41295;48.518;9.206;2022-10-29T00:33:51;22.35;;;6.50;;
32250;SDS011;41295;48.518;9.206;2022-10-29T00:35:55;16.83;;;5.97;;
32250;SDS011;41295;48.518;9.206;2022-10-29T00:37:58;17.08;;;5.93;;
32250;SDS011;41295;48.518;9.206;2022-10-29T00:40:02;18.52;;;5.85;;
32250;SDS011;41295;48.518;9.206;2022-10-29T00:42:11;26.50;;;6.47;;
32250;SDS011;41295;48.518;9.206;2022-10-29T00:44:23;21.75;;;6.57;;
32250;SDS011;41295;48.518;9.206;2022-10-29T00:46:29;20.67;;;8.35;;
32250;SDS011;41295;48.518;9.206;2022-10-29T00:48:36;14.15;;;5.20;;
32250;SDS011;41295;48.518;9.206;2022-10-29T00:50:44;14.35;;;5.93;;
32250;SDS011;41295;48.518;9.206;2022-10-29T00:52:48;22.63;;;4.88;;
32250;SDS011;41295;48.518;9.206;2022-10-29T00:54:53;20.10;;;6.43;;
32250;SDS011;41295;48.518;9.206;2022-10-29T00:56:59;18.13;;;5.63;;
32250;SDS011;41295;48.518;9.206;2022-10-29T00:59:06;16.83;;;6.45;;
32250;SDS011;41295;48.518;9.206;2022-10-29T01:01:10;18.85;;;5.72;;
32250;SDS011;41295;48.518;9.206;2022-10-29T01:03:13;25.95;;;7.07;;
32250;SDS011;41295;48.518;9.206;2022-10-29T01:05:16;15.75;;;6.03;;
32250;SDS011;41295;48.518;9.206;2022-10-29T01:07:22;16.15;;;5.97;;
32250;SDS011;41295;48.518;9.206;2022-10-29T01:09:25;16.25;;;5.50;;
32250;SDS011;41295;48.518;9.206;2022-10-29T01:11:29;26.80;;;6.38;;
32250;SDS011;41295;48.518;9.206;2022-10-29T01:13:49;11.18;;;5.00;;
32250;SDS011;41295;48.518;9.206;2022-10-29T01:16:03;18.23;;;5.95;;
32250;SDS011;41295;48.518;9.206;2022-10-29T01:18:16;15.90;;;6.28;;
32250;SDS011;41295;48.518;9.206;2022-10-29T01:20:39;15.88;;;5.15;;
32250;SDS011;41295;48.518;9.206;2022-10-29T01:22:59;17.42;;;5.50;;
32250;SDS011;41295;48.518;9.206;2022-10-29T01:25:25;16.27;;;5.82;;
32250;SDS011;41295;48.518;9.206;2022-10-29T01:27:48;20.13;;;6.97;;
32250;SDS011;41295;48.518;9.206;2022-10-29T01:30:06;23.15;;;6.90;;
32250;SDS011;41295;48.518;9.206;2022-10-29T01:32:16;20.27;;;6.20;;
32250;SDS011;41295;48.518;9.206;2022-10-29T01:34:26;18.15;;;6.55;;
32250;SDS011;41295;48.518;9.206;2022-10-29T01:36:32;15.27;;;5.53;;
32250;SDS011;41295;48.518;9.206;2022-10-29T01:38:44;19.25;;;5.60;;
32250;SDS011;41295;48.518;9.206;2022-10-29T01:40:54;18.85;;;5.60;;
32250;SDS011;41295;48.518;9.206;2022-10-29T01:43:03;26.17;;;5.97;;
32250;SDS011;41295;48.518;9.206;2022-10-29T01:45:10;16.15;;;5.70;;
32250;SDS011;41295;48.518;9.206;2022-10-29T01:47:21;11.80;;;4.55;;
32250;SDS011;41295;48.518;9.206;2022-10-29T01:49:28;15.38;;;5.88;;
32250;SDS011;41295;48.518;9.206;2022-10-29T01:51:35;13.07;;;5.47;;
32250;SDS011;41295;48.518;9.206;2022-10-29T01:53:40;18.33;;;5.35;;
32250;SDS011;41295;48.518;9.206;2022-10-29T01:55:43;18.75;;;6.55;;
32250;SDS011;41295;48.518;9.206;2022-10-29T01:57:45;18.23;;;5.65;;
32250;SDS011;41295;48.518;9.206;2022-10-29T01:59:48;17.25;;;6.50;;
32250;SDS011;41295;48.518;9.206;2022-10-29T02:02:00;25.13;;;6.40;;
32250;SDS011;41295;48.518;9.206;2022-10-29T02:04:15;14.95;;;5.65;;
32250;SDS011;41295;48.518;9.206;2022-10-29T02:06:35;19.38;;;6.07;;
32250;SDS011;41295;48.518;9.206;2022-10-29T02:08:46;17.48;;;5.90;;
32250;SDS011;41295;48.518;9.206;2022-10-29T02:10:58;14.73;;;5.45;;
32250;SDS011;41295;48.518;9.206;2022-10-29T02:13:05;15.68;;;5.28;;
32250;SDS011;41295;48.518;9.206;2022-10-29T02:15:11;18.15;;;5.63;;
32250;SDS011;41295;48.518;9.206;2022-10-29T02:17:17;14.68;;;5.07;;
32250;SDS011;41295;48.518;9.206;2022-10-29T02:19:22;17.02;;;5.43;;
32250;SDS011;41295;48.518;9.206;2022-10-29T02:21:24;11.77;;;5.57;;
32250;SDS011;41295;48.518;9.206;2022-10-29T02:23:27;13.07;;;5.85;;
32250;SDS011;41295;48.518;9.206;2022-10-29T02:25:29;21.48;;;4.95;;
32250;SDS011;41295;48.518;9.206;2022-10-29T02:27:32;17.55;;;4.97;;
32250;SDS011;41295;48.518;9.206;2022-10-29T02:29:35;18.98;;;5.63;;
32250;SDS011;41295;48.518;9.206;2022-10-29T02:31:38;17.77;;;6.18;;
32250;SDS011;41295;48.518;9.206;2022-10-29T02:33:40;20.45;;;5.60;;
32250;SDS011;41295;48.518;9.206;2022-10-29T02:35:44;20.77;;;5.93;;
32250;SDS011;41295;48.518;9.206;2022-10-29T02:37:47;19.25;;;5.07;;
32250;SDS011;41295;48.518;9.206;2022-10-29T02:39:49;15.82;;;5.50;;
32250;SDS011;41295;48.518;9.206;2022-10-29T02:41:52;21.00;;;5.80;;
32250;SDS011;41295;48.518;9.206;2022-10-29T02:43:55;14.68;;;5.00;;
32250;SDS011;41295;48.518;9.206;2022-10-29T02:46:10;17.10;;;4.97;;
32250;SDS011;41295;48.518;9.206;2022-10-29T02:48:14;20.30;;;5.50;;
32250;SDS011;41295;48.518;9.206;2022-10-29T02:50:17;12.23;;;4.97;;
32250;SDS011;41295;48.518;9.206;2022-10-29T02:52:21;17.85;;;6.20;;
32250;SDS011;41295;48.518;9.206;2022-10-29T02:54:24;16.20;;;6.38;;
32250;SDS011;41295;48.518;9.206;2022-10-29T02:56:27;16.65;;;5.65;;
32250;SDS011;41295;48.518;9.206;2022-10-29T02:58:29;15.75;;;5.32;;
32250;SDS011;41295;48.518;9.206;2022-10-29T03:00:32;13.98;;;6.43;;
32250;SDS011;41295;48.518;9.206;2022-10-29T03:02:35;16.13;;;5.53;;
32250;SDS011;41295;48.518;9.206;2022-10-29T03:04:37;15.60;;;5.35;;
32250;SDS011;41295;48.518;9.206;2022-10-29T03:06:41;22.75;;;6.00;;
32250;SDS011;41295;48.518;9.206;2022-10-29T03:08:45;19.02;;;6.93;;
32250;SDS011;41295;48.518;9.206;2022-10-29T03:10:48;20.15;;;6.40;;
32250;SDS011;41295;48.518;9.206;2022-10-29T03:12:51;15.13;;;5.63;;
32250;SDS011;41295;48.518;9.206;2022-10-29T03:14:54;20.35;;;6.22;;
32250;SDS011;41295;48.518;9.206;2022-10-29T03:16:56;16.17;;;6.43;;
32250;SDS011;41295;48.518;9.206;2022-10-29T03:18:59;15.43;;;5.05;;
32250;SDS011;41295;48.518;9.206;2022-10-29T03:21:02;21.35;;;5.15;;
32250;SDS011;41295;48.518;9.206;2022-10-29T03:23:05;13.15;;;5.50;;
32250;SDS011;41295;48.518;9.206;2022-10-29T03:25:09;18.58;;;6.03;;
32250;SDS011;41295;48.518;9.206;2022-10-29T03:27:11;18.58;;;7.22;;
32250;SDS011;41295;48.518;9.206;2022-10-29T03:29:14;19.77;;;6.97;;
32250;SDS011;41295;48.518;9.206;2022-10-29T03:31:16;17.88;;;7.25;;
32250;SDS011;41295;48.518;9.206;2022-10-29T03:33:19;18.83;;;7.03;;
32250;SDS011;41295;48.518;9.206;2022-10-29T03:35:23;16.48;;;6.25;;
32250;SDS011;41295;48.518;9.206;2022-10-29T03:37:26;17.13;;;6.60;;
32250;SDS011;41295;48.518;9.206;2022-10-29T03:39:28;16.98;;;6.18;;
32250;SDS011;41295;48.518;9.206;2022-10-29T03:41:32;18.65;;;6.28;;
32250;SDS011;41295;48.518;9.206;2022-10-29T03:43:35;17.90;;;6.47;;
32250;SDS011;41295;48.518;9.206;2022-10-29T03:45:37;19.55;;;6.25;;
32250;SDS011;41295;48.518;9.206;2022-10-29T03:47:40;17.52;;;7.15;;
32250;SDS011;41295;48.518;9.206;2022-10-29T03:49:43;22.80;;;7.15;;
32250;SDS011;41295;48.518;9.206;2022-10-29T03:51:45;14.88;;;6.65;;
32250;SDS011;41295;48.518;9.206;2022-10-29T03:53:48;18.30;;;8.15;;
32250;SDS011;41295;48.518;9.206;2022-10-29T03:55:51;23.42;;;7.15;;
32250;SDS011;41295;48.518;9.206;2022-10-29T03:57:55;21.13;;;7.35;;
32250;SDS011;41295;48.518;9.206;2022-10-29T03:59:58;26.15;;;8.07;;
32250;SDS011;41295;48.518;9.206;2022-10-29T04:02:02;22.17;;;6.70;;
32250;SDS011;41295;48.518;9.206;2022-10-29T04:04:04;17.85;;;6.97;;
32250;SDS011;41295;48.518;9.206;2022-10-29T04:06:08;16.05;;;6.45;;
32250;SDS011;41295;48.518;9.206;2022-10-29T04:08:12;16.95;;;6.00;;
32250;SDS011;41295;48.518;9.206;2022-10-29T04:10:15;20.42;;;6.13;;
32250;SDS011;41295;48.518;9.206;2022-10-29T04:12:17;15.93;;;5.63;;
32250;SDS011;41295;48.518;9.206;2022-10-29T04:14:21;15.93;;;6.38;;
32250;SDS011;41295;48.518;9.206;2022-10-29T04:16:24;24.17;;;6.60;;
32250;SDS011;41295;48.518;9.206;2022-10-29T04:18:27;15.82;;;5.78;;
32250;SDS011;41295;48.518;9.206;2022-10-29T04:20:29;21.40;;;6.93;;
32250;SDS011;41295;48.518;9.206;2022-10-29T04:22:52;17.98;;;6.15;;
32250;SDS011;41295;48.518;9.206;2022-10-29T04:25:14;18.35;;;6.05;;
32250;SDS011;41295;48.518;9.206;2022-10-29T04:27:37;15.85;;;6.45;;
32250;SDS011;41295;48.518;9.206;2022-10-29T04:30:01;15.38;;;5.75;;
32250;SDS011;41295;48.518;9.206;2022-10-29T04:32:03;16.50;;;6.25;;
32250;SDS011;41295;48.518;9.206;2022-10-29T04:34:06;16.77;;;6.40;;
32250;SDS011;41295;48.518;9.206;2022-10-29T04:36:09;13.57;;;5.60;;
32250;SDS011;41295;48.518;9.206;2022-10-29T04:38:12;15.70;;;6.35;;
32250;SDS011;41295;48.518;9.206;2022-10-29T04:40:14;22.88;;;6.50;;
32250;SDS011;41295;48.518;9.206;2022-10-29T04:42:18;17.15;;;6.05;;
32250;SDS011;41295;48.518;9.206;2022-10-29T04:44:20;17.50;;;6.45;;
32250;SDS011;41295;48.518;9.206;2022-10-29T04:46:24;19.08;;;6.53;;
32250;SDS011;41295;48.518;9.206;2022-10-29T04:48:27;20.55;;;6.90;;
32250;SDS011;41295;48.518;9.206;2022-10-29T04:50:30;21.55;;;6.68;;
32250;SDS011;41295;48.518;9.206;2022-10-29T04:52:34;22.75;;;6.28;;
32250;SDS011;41295;48.518;9.206;2022-10-29T04:54:36;18.88;;;6.38;;
32250;SDS011;41295;48.518;9.206;2022-10-29T04:56:39;22.48;;;6.60;;
32250;SDS011;41295;48.518;9.206;2022-10-29T04:58:42;18.00;;;6.20;;
32250;SDS011;41295;48.518;9.206;2022-10-29T05:00:47;15.68;;;6.05;;
32250;SDS011;41295;48.518;9.206;2022-10-29T05:02:52;17.80;;;5.95;;
32250;SDS011;41295;48.518;9.206;2022-10-29T05:04:55;20.90;;;6.00;;
32250;SDS011;41295;48.518;9.206;2022-10-29T05:06:58;11.95;;;5.13;;
32250;SDS011;41295;48.518;9.206;2022-10-29T05:09:01;17.50;;;5.82;;
32250;SDS011;41295;48.518;9.206;2022-10-29T05:11:04;19.63;;;6.78;;
32250;SDS011;41295;48.518;9.206;2022-10-29T05:13:09;16.00;;;6.72;;
32250;SDS011;41295;48.518;9.206;2022-10-29T05:15:14;22.80;;;6.07;;
32250;SDS011;41295;48.518;9.206;2022-10-29T05:17:17;12.85;;;6.13;;
32250;SDS011;41295;48.518;9.206;2022-10-29T05:19:21;18.48;;;6.75;;
32250;SDS011;41295;48.518;9.206;2022-10-29T05:21:23;16.90;;;6.43;;
32250;SDS011;41295;48.518;9.206;2022-10-29T05:23:26;18.05;;;6.00;;
32250;SDS011;41295;48.518;9.206;2022-10-29T05:25:29;23.48;;;6.35;;
32250;SDS011;41295;48.518;9.206;2022-10-29T05:27:32;19.25;;;7.05;;
32250;SDS011;41295;48.518;9.206;2022-10-29T05:29:35;22.15;;;6.70;;
32250;SDS011;41295;48.518;9.206;2022-10-29T05:31:38;23.38;;;5.47;;
32250;SDS011;41295;48.518;9.206;2022-10-29T05:33:40;20.88;;;5.97;;
32250;SDS011;41295;48.518;9.206;2022-10-29T05:35:44;20.45;;;6.57;;
32250;SDS011;41295;48.518;9.206;2022-10-29T05:37:49;20.65;;;5.85;;
32250;SDS011;41295;48.518;9.206;2022-10-29T05:39:52;19.67;;;6.30;;
32250;SDS011;41295;48.518;9.206;2022-10-29T05:41:55;23.23;;;6.50;;
32250;SDS011;41295;48.518;9.206;2022-10-29T05:43:58;17.00;;;6.05;;
32250;SDS011;41295;48.518;9.206;2022-10-29T05:46:01;20.85;;;5.65;;
32250;SDS011;41295;48.518;9.206;2022-10-29T05:48:04;17.77;;;5.82;;
32250;SDS011;41295;48.518;9.206;2022-10-29T05:50:08;22.25;;;6.55;;
32250;SDS011;41295;48.518;9.206;2022-10-29T05:52:12;16.30;;;6.20;;
32250;SDS011;41295;48.518;9.206;2022-10-29T05:54:15;24.00;;;6.55;;
32250;SDS011;41295;48.518;9.206;2022-10-29T05:56:18;15.90;;;6.20;;
32250;SDS011;41295;48.518;9.206;2022-10-29T05:58:20;17.13;;;5.78;;
32250;SDS011;41295;48.518;9.206;2022-10-29T06:00:23;13.60;;;5.65;;
32250;SDS011;41295;48.518;9.206;2022-10-29T06:02:26;17.02;;;6.32;;
32250;SDS011;41295;48.518;9.206;2022-10-29T06:04:29;19.73;;;7.22;;
32250;SDS011;41295;48.518;9.206;2022-10-29T06:06:32;19.40;;;6.57;;
32250;SDS011;41295;48.518;9.206;2022-10-29T06:08:36;17.63;;;5.85;;
32250;SDS011;41295;48.518;9.206;2022-10-29T06:10:39;22.50;;;5.95;;
32250;SDS011;41295;48.518;9.206;2022-10-29T06:12:41;18.85;;;6.40;;
32250;SDS011;41295;48.518;9.206;2022-10-29T06:14:44;17.25;;;6.35;;
32250;SDS011;41295;48.518;9.206;2022-10-29T06:16:46;15.40;;;6.18;;
32250;SDS011;41295;48.518;9.206;2022-10-29T06:18:49;22.85;;;6.45;;
32250;SDS011;41295;48.518;9.206;2022-10-29T06:20:52;15.65;;;6.53;;
32250;SDS011;41295;48.518;9.206;2022-10-29T06:22:55;15.52;;;6.50;;
32250;SDS011;41295;48.518;9.206;2022-10-29T06:25:00;17.20;;;6.35;;
32250;SDS011;41295;48.518;9.206;2022-10-29T06:27:03;17.20;;;6.00;;
32250;SDS011;41295;48.518;9.206;2022-10-29T06:29:05;17.67;;;6.72;;
32250;SDS011;41295;48.518;9.206;2022-10-29T06:31:08;21.98;;;7.00;;
32250;SDS011;41295;48.518;9.206;2022-10-29T06:33:11;19.60;;;7.38;;
32250;SDS011;41295;48.518;9.206;2022-10-29T06:35:13;18.80;;;7.50;;
32250;SDS011;41295;48.518;9.206;2022-10-29T06:37:16;18.25;;;7.43;;
32250;SDS011;41295;48.518;9.206;2022-10-29T06:39:18;18.73;;;7.35;;
32250;SDS011;41295;48.518;9.206;2022-10-29T06:41:22;21.92;;;8.07;;
32250;SDS011;41295;48.518;9.206;2022-10-29T06:43:27;18.63;;;7.28;;
32250;SDS011;41295;48.518;9.206;2022-10-29T06:45:30;21.33;;;6.85;;
32250;SDS011;41295;48.518;9.206;2022-10-29T06:47:37;17.02;;;6.47;;
32250;SDS011;41295;48.518;9.206;2022-10-29T06:49:40;18.50;;;6.18;;
32250;SDS011;41295;48.518;9.206;2022-10-29T06:51:42;17.70;;;6.57;;
32250;SDS011;41295;48.518;9.206;2022-10-29T06:53:45;16.65;;;6.38;;
32250;SDS011;41295;48.518;9.206;2022-10-29T06:55:47;15.45;;;6.80;;
32250;SDS011;41295;48.518;9.206;2022-10-29T06:57:56;25.40;;;6.28;;
32250;SDS011;41295;48.518;9.206;2022-10-29T07:00:00;20.25;;;5.85;;
32250;SDS011;41295;48.518;9.206;2022-10-29T07:02:08;17.33;;;5.93;;
32250;SDS011;41295;48.518;9.206;2022-10-29T07:04:13;17.98;;;5.90;;
32250;SDS011;41295;48.518;9.206;2022-10-29T07:06:18;17.83;;;6.43;;
32250;SDS011;41295;48.518;9.206;2022-10-29T07:08:21;14.90;;;6.15;;
32250;SDS011;41295;48.518;9.206;2022-10-29T07:10:24;16.40;;;5.55;;
32250;SDS011;41295;48.518;9.206;2022-10-29T07:12:28;18.55;;;5.93;;
32250;SDS011;41295;48.518;9.206;2022-10-29T07:14:32;18.02;;;6.70;;
32250;SDS011;41295;48.518;9.206;2022-10-29T07:16:35;17.90;;;7.43;;
32250;SDS011;41295;48.518;9.206;2022-10-29T07:18:38;22.13;;;7.78;;
32250;SDS011;41295;48.518;9.206;2022-10-29T07:20:41;17.38;;;8.25;;
32250;SDS011;41295;48.518;9.206;2022-10-29T07:22:45;29.27;;;8.55;;
32250;SDS011;41295;48.518;9.206;2022-10-29T07:24:48;17.40;;;7.75;;
32250;SDS011;41295;48.518;9.206;2022-10-29T07:26:53;13.77;;;6.88;;
32250;SDS011;41295;48.518;9.206;2022-10-29T07:28:55;17.85;;;7.35;;
32250;SDS011;41295;48.518;9.206;2022-10-29T07:31:00;22.40;;;8.35;;
32250;SDS011;41295;48.518;9.206;2022-10-29T07:33:03;16.95;;;6.18;;
32250;SDS011;41295;48.518;9.206;2022-10-29T07:35:08;16.30;;;5.85;;
32250;SDS011;41295;48.518;9.206;2022-10-29T07:37:11;15.35;;;7.18;;
32250;SDS011;41295;48.518;9.206;2022-10-29T07:39:13;26.55;;;7.40;;
32250;SDS011;41295;48.518;9.206;2022-10-29T07:41:16;17.67;;;6.35;;
32250;SDS011;41295;48.518;9.206;2022-10-29T07:43:19;23.15;;;6.93;;
32250;SDS011;41295;48.518;9.206;2022-10-29T07:45:23;21.23;;;6.55;;
32250;SDS011;41295;48.518;9.206;2022-10-29T07:47:27;15.95;;;6.03;;
32250;SDS011;41295;48.518;9.206;2022-10-29T07:49:30;12.20;;;5.65;;
32250;SDS011;41295;48.518;9.206;2022-10-29T07:51:32;29.33;;;6.22;;
32250;SDS011;41295;48.518;9.206;2022-10-29T07:53:35;17.50;;;6.60;;
32250;SDS011;41295;48.518;9.206;2022-10-29T07:55:38;21.48;;;6.78;;
32250;SDS011;41295;48.518;9.206;2022-10-29T07:57:40;21.02;;;6.05;;
32250;SDS011;41295;48.518;9.206;2022-10-29T07:59:43;19.33;;;6.00;;
32250;SDS011;41295;48.518;9.206;2022-10-29T08:01:47;26.30;;;6.38;;
32250;SDS011;41295;48.518;9.206;2022-10-29T08:03:51;16.08;;;5.97;;
32250;SDS011;41295;48.518;9.206;2022-10-29T08:05:55;19.88;;;6.95;;
32250;SDS011;41295;48.518;9.206;2022-10-29T08:07:58;19.67;;;7.05;;
32250;SDS011;41295;48.518;9.206;2022-10-29T08:10:01;19.70;;;5.68;;
32250;SDS011;41295;48.518;9.206;2022-10-29T08:12:04;22.30;;;6.45;;
32250;SDS011;41295;48.518;9.206;2022-10-29T08:14:07;18.95;;;6.03;;
32250;SDS011;41295;48.518;9.206;2022-10-29T08:16:10;27.10;;;6.45;;
32250;SDS011;41295;48.518;9.206;2022-10-29T08:18:13;23.08;;;6.15;;
32250;SDS011;41295;48.518;9.206;2022-10-29T08:20:18;16.88;;;6.78;;
32250;SDS011;41295;48.518;9.206;2022-10-29T08:22:21;16.33;;;6.60;;
32250;SDS011;41295;48.518;9.206;2022-10-29T08:24:24;23.08;;;6.47;;
32250;SDS011;41295;48.518;9.206;2022-10-29T08:26:26;21.30;;;6.25;;
32250;SDS011;41295;48.518;9.206;2022-10-29T08:28:29;22.17;;;6.40;;
32250;SDS011;41295;48.518;9.206;2022-10-29T08:30:36;21.08;;;6.68;;
32250;SDS011;41295;48.518;9.206;2022-10-29T08:32:43;20.17;;;6.97;;
32250;SDS011;41295;48.518;9.206;2022-10-29T08:34:47;15.73;;;5.68;;
32250;SDS011;41295;48.518;9.206;2022-10-29T08:36:51;18.48;;;6.35;;
32250;SDS011;41295;48.518;9.206;2022-10-29T08:38:54;19.55;;;6.35;;
32250;SDS011;41295;48.518;9.206;2022-10-29T08:41:07;19.83;;;6.07;;
32250;SDS011;41295;48.518;9.206;2022-10-29T08:43:29;25.23;;;7.00;;
32250;SDS011;41295;48.518;9.206;2022-10-29T08:45:50;19.45;;;9.07;;
32250;SDS011;41295;48.518;9.206;2022-10-29T08:48:00;15.10;;;6.40;;
32250;SDS011;41295;48.518;9.206;2022-10-29T08:50:18;21.40;;;6.22;;
32250;SDS011;41295;48.518;9.206;2022-10-29T08:52:28;23.67;;;6.18;;
32250;SDS011;41295;48.518;9.206;2022-10-29T08:54:34;18.17;;;6.15;;
32250;SDS011;41295;48.518;9.206;2022-10-29T08:56:42;18.02;;;6.32;;
32250;SDS011;41295;48.518;9.206;2022-10-29T08:58:52;17.67;;;5.82;;
32250;SDS011;41295;48.518;9.206;2022-10-29T09:01:00;17.10;;;6.68;;
32250;SDS011;41295;48.518;9.206;2022-10-29T09:03:07;18.38;;;5.88;;
32250;SDS011;41295;48.518;9.206;2022-10-29T09:05:13;18.02;;;6.40;;
32250;SDS011;41295;48.518;9.206;2022-10-29T09:07:22;26.42;;;6.32;;
32250;SDS011;41295;48.518;9.206;2022-10-29T09:09:36;16.77;;;5.90;;
32250;SDS011;41295;48.518;9.206;2022-10-29T09:11:50;28.75;;;6.30;;
32250;SDS011;41295;48.518;9.206;2022-10-29T09:14:07;16.23;;;6.63;;
32250;SDS011;41295;48.518;9.206;2022-10-29T09:16:31;20.60;;;5.47;;
32250;SDS011;41295;48.518;9.206;2022-10-29T09:18:46;15.82;;;5.72;;
32250;SDS011;41295;48.518;9.206;2022-10-29T09:21:00;17.50;;;6.32;;
32250;SDS011;41295;48.518;9.206;2022-10-29T09:23:13;18.48;;;5.93;;
32250;SDS011;41295;48.518;9.206;2022-10-29T09:25:29;20.27;;;6.40;;
32250;SDS011;41295;48.518;9.206;2022-10-29T09:27:36;20.95;;;5.78;;
32250;SDS011;41295;48.518;9.206;2022-10-29T09:29:50;19.85;;;6.60;;
32250;SDS011;41295;48.518;9.206;2022-10-29T09:32:04;23.92;;;6.72;;
32250;SDS011;41295;48.518;9.206;2022-10-29T09:34:12;20.38;;;5.68;;
32250;SDS011;41295;48.518;9.206;2022-10-29T09:36:20;16.60;;;6.20;;
32250;SDS011;41295;48.518;9.206;2022-10-29T09:38:26;14.40;;;5.72;;
32250;SDS011;41295;48.518;9.206;2022-10-29T09:40:33;21.77;;;5.57;;
32250;SDS011;41295;48.518;9.206;2022-10-29T09:42:38;16.23;;;5.85;;
32250;SDS011;41295;48.518;9.206;2022-10-29T09:44:45;40.35;;;6.60;;
32250;SDS011;41295;48.518;9.206;2022-10-29T09:46:55;21.42;;;5.43;;
32250;SDS011;41295;48.518;9.206;2022-10-29T09:49:14;24.75;;;5.88;;
32250;SDS011;41295;48.518;9.206;2022-10-29T09:51:33;20.95;;;6.38;;
32250;SDS011;41295;48.518;9.206;2022-10-29T09:55:46;19.58;;;5.57;;
32250;SDS011;41295;48.518;9.206;2022-10-29T09:57:54;22.25;;;6.40;;
32250;SDS011;41295;48.518;9.206;2022-10-29T09:59:59;19.05;;;7.00;;
32250;SDS011;41295;48.518;9.206;2022-10-29T10:02:06;29.92;;;7.03;;
32250;SDS011;41295;48.518;9.206;2022-10-29T10:04:30;24.85;;;6.10;;
32250;SDS011;41295;48.518;9.206;2022-10-29T10:06:59;18.67;;;6.85;;
32250;SDS011;41295;48.518;9.206;2022-10-29T10:09:04;19.13;;;6.35;;
32250;SDS011;41295;48.518;9.206;2022-10-29T10:11:07;20.65;;;5.85;;
32250;SDS011;41295;48.518;9.206;2022-10-29T10:13:21;24.20;;;6.95;;
32250;SDS011;41295;48.518;9.206;2022-10-29T10:15:28;15.73;;;6.90;;
32250;SDS011;41295;48.518;9.206;2022-10-29T10:17:53;24.10;;;6.57;;
32250;SDS011;41295;48.518;9.206;2022-10-29T10:19:58;22.15;;;6.65;;
32250;SDS011;41295;48.518;9.206;2022-10-29T10:22:04;21.40;;;6.93;;
32250;SDS011;41295;48.518;9.206;2022-10-29T10:24:26;20.35;;;6.88;;
32250;SDS011;41295;48.518;9.206;2022-10-29T10:26:31;20.70;;;7.95;;
32250;SDS011;41295;48.518;9.206;2022-10-29T10:28:36;27.10;;;7.40;;
32250;SDS011;41295;48.518;9.206;2022-10-29T10:30:39;26.88;;;7.90;;
32250;SDS011;41295;48.518;9.206;2022-10-29T10:32:43;27.85;;;8.50;;
32250;SDS011;41295;48.518;9.206;2022-10-29T10:34:45;28.15;;;7.50;;
32250;SDS011;41295;48.518;9.206;2022-10-29T10:36:51;24.10;;;7.88;;
32250;SDS011;41295;48.518;9.206;2022-10-29T10:38:56;23.15;;;7.15;;
32250;SDS011;41295;48.518;9.206;2022-10-29T10:41:04;18.92;;;7.20;;
32250;SDS011;41295;48.518;9.206;2022-10-29T10:43:12;20.60;;;6.30;;
32250;SDS011;41295;48.518;9.206;2022-10-29T10:45:22;20.98;;;6.93;;
32250;SDS011;41295;48.518;9.206;2022-10-29T10:47:27;24.58;;;7.10;;
32250;SDS011;41295;48.518;9.206;2022-10-29T10:49:33;28.90;;;6.85;;
32250;SDS011;41295;48.518;9.206;2022-10-29T10:51:37;26.92;;;6.97;;
32250;SDS011;41295;48.518;9.206;2022-10-29T10:53:43;26.92;;;7.28;;
32250;SDS011;41295;48.518;9.206;2022-10-29T10:55:46;22.27;;;6.57;;
32250;SDS011;41295;48.518;9.206;2022-10-29T10:57:53;23.73;;;7.22;;
32250;SDS011;41295;48.518;9.206;2022-10-29T11:00:03;17.70;;;7.22;;
32250;SDS011;41295;48.518;9.206;2022-10-29T11:02:13;18.08;;;5.47;;
32250;SDS011;41295;48.518;9.206;2022-10-29T11:04:23;25.35;;;7.10;;
32250;SDS011;41295;48.518;9.206;2022-10-29T11:06:31;26.23;;;8.45;;
32250;SDS011;41295;48.518;9.206;2022-10-29T11:08:39;41.15;;;10.40;;
32250;SDS011;41295;48.518;9.206;2022-10-29T11:10:47;20.75;;;7.47;;
32250;SDS011;41295;48.518;9.206;2022-10-29T11:12:55;26.98;;;6.97;;
32250;SDS011;41295;48.518;9.206;2022-10-29T11:15:04;22.13;;;7.07;;
32250;SDS011;41295;48.518;9.206;2022-10-29T11:17:18;29.13;;;7.95;;
32250;SDS011;41295;48.518;9.206;2022-10-29T11:19:29;19.70;;;6.55;;
32250;SDS011;41295;48.518;9.206;2022-10-29T11:21:41;19.92;;;6.88;;
32250;SDS011;41295;48.518;9.206;2022-10-29T11:23:51;16.27;;;5.30;;
32250;SDS011;41295;48.518;9.206;2022-10-29T11:26:03;20.20;;;6.07;;
32250;SDS011;41295;48.518;9.206;2022-10-29T11:28:17;14.75;;;6.03;;
32250;SDS011;41295;48.518;9.206;2022-10-29T11:30:24;16.48;;;5.97;;
32250;SDS011;41295;48.518;9.206;2022-10-29T11:32:33;22.50;;;6.80;;
32250;SDS011;41295;48.518;9.206;2022-10-29T11:34:47;20.08;;;5.53;;
32250;SDS011;41295;48.518;9.206;2022-10-29T11:36:56;18.75;;;5.97;;
32250;SDS011;41295;48.518;9.206;2022-10-29T11:39:08;19.67;;;5.60;;
32250;SDS011;41295;48.518;9.206;2022-10-29T11:41:17;22.98;;;6.72;;
32250;SDS011;41295;48.518;9.206;2022-10-29T11:43:28;32.03;;;8.35;;
32250;SDS011;41295;48.518;9.206;2022-10-29T11:45:33;25.10;;;7.20;;
32250;SDS011;41295;48.518;9.206;2022-10-29T11:47:53;25.33;;;6.97;;
32250;SDS011;41295;48.518;9.206;2022-10-29T11:50:08;20.73;;;7.00;;
32250;SDS011;41295;48.518;9.206;2022-10-29T11:52:21;20.92;;;7.20;;
32250;SDS011;41295;48.518;9.206;2022-10-29T11:54:44;22.92;;;8.20;;
32250;SDS011;41295;48.518;9.206;2022-10-29T11:56:53;20.25;;;6.65;;
32250;SDS011;41295;48.518;9.206;2022-10-29T11:59:02;18.75;;;6.90;;
32250;SDS011;41295;48.518;9.206;2022-10-29T12:01:10;25.80;;;6.55;;
32250;SDS011;41295;48.518;9.206;2022-10-29T12:03:30;21.83;;;6.72;;
32250;SDS011;41295;48.518;9.206;2022-10-29T12:05:45;25.27;;;9.65;;
32250;SDS011;41295;48.518;9.206;2022-10-29T12:08:01;22.17;;;6.65;;
32250;SDS011;41295;48.518;9.206;2022-10-29T12:10:20;16.38;;;5.95;;
32250;SDS011;41295;48.518;9.206;2022-10-29T12:12:35;25.08;;;5.97;;
32250;SDS011;41295;48.518;9.206;2022-10-29T12:14:50;19.95;;;5.30;;
32250;SDS011;41295;48.518;9.206;2022-10-29T12:16:59;24.00;;;6.05;;
32250;SDS011;41295;48.518;9.206;2022-10-29T12:19:11;17.63;;;5.38;;
32250;SDS011;41295;48.518;9.206;2022-10-29T12:21:23;16.25;;;6.43;;
32250;SDS011;41295;48.518;9.206;2022-10-29T12:23:34;16.73;;;6.03;;
32250;SDS011;41295;48.518;9.206;2022-10-29T12:25:48;20.15;;;6.80;;
32250;SDS011;41295;48.518;9.206;2022-10-29T12:28:02;14.73;;;6.07;;
32250;SDS011;41295;48.518;9.206;2022-10-29T12:30:21;27.67;;;7.28;;
32250;SDS011;41295;48.518;9.206;2022-10-29T12:32:26;15.00;;;6.18;;